createdAt,value
2019-03-28T00:01:25.946Z,8.50
2019-03-28T00:06:16.314Z,7.90
2019-03-28T00:11:05.544Z,10.90
2019-03-28T00:15:58.242Z,17.30
2019-03-28T00:20:50.561Z,9.90
2019-03-28T00:25:42.748Z,9.70
2019-03-28T00:30:36.865Z,12.50
2019-03-28T00:35:30.255Z,13.50
2019-03-28T00:40:24.786Z,11.80
2019-03-28T00:45:18.189Z,10.80
2019-03-28T00:50:11.626Z,10.40
2019-03-28T00:55:05.230Z,11.20
2019-03-28T00:59:59.640Z,9.70
2019-03-28T01:04:53.113Z,9.70
2019-03-28T01:09:44.937Z,13.50
2019-03-28T01:14:38.855Z,9.20
2019-03-28T01:19:30.234Z,12.60
2019-03-28T01:24:24.425Z,9.20
2019-03-28T01:29:18.038Z,9.00
2019-03-28T01:34:26.447Z,12.30
2019-03-28T01:39:15.726Z,8.40
2019-03-28T01:44:07.670Z,8.00
2019-03-28T01:48:59.402Z,8.90
2019-03-28T01:53:53.626Z,7.60
2019-03-28T01:58:47.730Z,11.60
2019-03-28T02:03:42.698Z,9.40
2019-03-28T02:08:36.228Z,9.50
2019-03-28T02:13:28.256Z,9.50
2019-03-28T02:18:22.562Z,8.50
2019-03-28T02:23:14.503Z,10.70
2019-03-28T02:28:06.638Z,8.20
2019-03-28T02:32:58.628Z,7.40
2019-03-28T02:37:51.202Z,7.30
2019-03-28T02:42:43.436Z,9.90
2019-03-28T02:47:37.463Z,11.10
2019-03-28T02:52:31.269Z,8.60
2019-03-28T02:57:39.996Z,5.80
2019-03-28T03:02:33.457Z,10.10
2019-03-28T03:07:27.135Z,11.50
2019-03-28T03:12:20.500Z,6.80
2019-03-28T03:17:14.272Z,7.50
2019-03-28T03:22:07.393Z,7.50
2019-03-28T03:26:59.947Z,10.20
2019-03-28T03:31:54.327Z,7.20
2019-03-28T03:37:02.318Z,10.50
2019-03-28T03:41:52.885Z,7.60
2019-03-28T03:46:46.868Z,8.40
2019-03-28T03:51:40.636Z,8.30
2019-03-28T03:56:35.694Z,9.90
2019-03-28T04:01:27.574Z,7.90
2019-03-28T04:06:28.124Z,8.90
2019-03-28T04:11:37.919Z,10.30
2019-03-28T04:16:50.802Z,10.70
2019-03-28T04:21:40.948Z,8.60
2019-03-28T04:26:33.451Z,10.60
2019-03-28T04:31:25.567Z,10.70
2019-03-28T04:36:17.993Z,8.70
2019-03-28T04:41:10.112Z,10.70
2019-03-28T04:46:04.107Z,11.90
2019-03-28T04:50:57.950Z,9.10
2019-03-28T04:55:49.335Z,9.20
2019-03-28T05:00:41.094Z,11.00
2019-03-28T05:05:33.076Z,11.10
2019-03-28T05:10:25.237Z,13.20
2019-03-28T05:15:20.454Z,13.30
2019-03-28T05:20:13.812Z,9.10
2019-03-28T05:25:06.942Z,15.60
2019-03-28T05:29:58.758Z,15.50
2019-03-28T05:34:50.522Z,13.50
2019-03-28T05:39:42.501Z,10.90
2019-03-28T05:44:35.260Z,10.20
2019-03-28T05:49:27.062Z,12.70
2019-03-28T05:54:19.557Z,11.40
2019-03-28T05:59:11.687Z,11.50
2019-03-28T06:04:03.542Z,16.80
2019-03-28T06:08:55.518Z,13.40
2019-03-28T06:13:48.102Z,13.60
2019-03-28T06:18:40.482Z,18.30
2019-03-28T06:23:32.457Z,12.50
2019-03-28T06:28:25.324Z,18.50
2019-03-28T06:33:17.244Z,16.70
2019-03-28T06:38:11.444Z,15.10
2019-03-28T06:43:06.296Z,16.40
2019-03-28T06:47:57.664Z,16.00
2019-03-28T06:52:49.750Z,16.30
2019-03-28T06:57:41.880Z,13.80
2019-03-28T07:02:33.845Z,15.00
2019-03-28T07:07:26.203Z,12.40
2019-03-28T07:12:18.459Z,10.80
2019-03-28T07:17:10.544Z,16.10
2019-03-28T07:22:02.441Z,13.70
2019-03-28T07:26:54.441Z,9.40
2019-03-28T07:31:46.225Z,16.70
2019-03-28T07:36:38.263Z,11.30
2019-03-28T07:41:30.346Z,15.30
2019-03-28T07:46:22.690Z,12.20
2019-03-28T07:51:14.927Z,21.70
2019-03-28T07:56:06.992Z,11.70
2019-03-28T08:00:59.361Z,15.80
2019-03-28T08:05:51.496Z,11.50
2019-03-28T08:10:43.469Z,15.70
2019-03-28T08:15:35.457Z,17.60
2019-03-28T08:20:27.578Z,14.10
2019-03-28T08:25:19.681Z,16.70
2019-03-28T08:30:17.896Z,14.70
2019-03-28T08:35:10.422Z,15.60
2019-03-28T08:40:02.281Z,16.00
2019-03-28T08:44:54.488Z,14.90
2019-03-28T08:49:48.515Z,18.50
2019-03-28T08:54:40.392Z,28.50
2019-03-28T09:04:41.177Z,17.50
2019-03-28T09:09:35.368Z,17.50
2019-03-28T09:14:27.179Z,16.00
2019-03-28T09:19:38.622Z,20.50
2019-03-28T09:24:30.438Z,16.30
2019-03-28T09:29:22.398Z,25.40
2019-03-28T09:34:14.454Z,15.90
2019-03-28T09:39:07.686Z,16.50
2019-03-28T09:44:00.028Z,15.70
2019-03-28T09:48:54.395Z,16.80
2019-03-28T09:53:46.522Z,13.60
2019-03-28T09:58:38.945Z,19.50
2019-03-28T10:03:31.414Z,12.10
2019-03-28T10:08:24.546Z,12.40
2019-03-28T10:13:16.541Z,10.70
2019-03-28T10:18:08.686Z,8.90
2019-03-28T10:23:02.118Z,13.50
2019-03-28T10:27:54.193Z,12.20
2019-03-28T10:32:48.663Z,12.80
2019-03-28T10:37:40.600Z,12.40
2019-03-28T10:42:33.455Z,7.40
2019-03-28T10:47:25.672Z,13.70
2019-03-28T10:52:19.472Z,17.10
2019-03-28T10:57:13.773Z,10.20
2019-03-28T11:02:20.452Z,11.90
2019-03-28T11:07:13.224Z,12.30
2019-03-28T11:12:05.841Z,10.80
2019-03-28T11:16:58.715Z,11.10
2019-03-28T11:21:51.140Z,10.60
2019-03-28T11:26:46.570Z,12.30
2019-03-28T11:31:45.970Z,10.40
2019-03-28T11:36:41.454Z,8.10
2019-03-28T11:41:34.663Z,9.80
2019-03-28T11:46:27.107Z,9.50
2019-03-28T11:51:19.196Z,7.00
2019-03-28T11:56:11.399Z,6.00
2019-03-28T12:01:04.085Z,10.00
2019-03-28T12:05:56.626Z,9.60
2019-03-28T12:10:49.565Z,7.00
2019-03-28T12:15:41.785Z,6.40
2019-03-28T12:20:34.551Z,9.30
2019-03-28T12:25:26.989Z,13.30
2019-03-28T12:30:19.589Z,8.30
2019-03-28T12:35:13.006Z,7.50
2019-03-28T12:40:05.755Z,8.30
2019-03-28T12:44:59.063Z,8.90
2019-03-28T12:49:51.549Z,11.80
2019-03-28T12:54:44.302Z,12.40
2019-03-28T12:59:37.709Z,8.30
2019-03-28T13:04:31.152Z,8.80
2019-03-28T13:09:23.533Z,8.90
2019-03-28T13:14:16.016Z,8.30
2019-03-28T13:19:08.127Z,7.70
2019-03-28T13:24:00.326Z,9.30
2019-03-28T13:28:52.685Z,7.90
2019-03-28T13:33:45.585Z,9.20
2019-03-28T13:38:38.059Z,8.30
2019-03-28T13:43:30.755Z,11.70
2019-03-28T13:48:23.837Z,7.40
2019-03-28T13:53:16.344Z,9.20
2019-03-28T13:58:08.544Z,9.00
2019-03-28T14:03:00.733Z,7.60
2019-03-28T14:07:52.866Z,7.00
2019-03-28T14:12:46.005Z,6.90
2019-03-28T14:17:38.070Z,9.80
2019-03-28T14:22:30.600Z,8.20
2019-03-28T14:27:23.146Z,11.30
2019-03-28T14:32:15.645Z,10.10
2019-03-28T14:37:08.138Z,9.70
2019-03-28T14:42:00.554Z,8.30
2019-03-28T14:46:53.052Z,9.70
2019-03-28T14:51:46.093Z,7.90
2019-03-28T14:56:38.889Z,9.10
2019-03-28T15:01:32.369Z,10.30
2019-03-28T15:06:26.317Z,11.00
2019-03-28T15:11:18.343Z,9.70
2019-03-28T15:16:10.590Z,10.80
2019-03-28T15:21:02.921Z,8.90
2019-03-28T15:25:57.352Z,11.70
2019-03-28T15:30:50.108Z,8.40
2019-03-28T15:35:42.163Z,11.50
2019-03-28T15:40:34.359Z,10.00
2019-03-28T15:45:26.714Z,11.90
2019-03-28T15:50:19.773Z,9.20
2019-03-28T15:55:14.634Z,9.60
2019-03-28T16:00:06.375Z,10.60
2019-03-28T16:04:58.665Z,7.20
2019-03-28T16:09:50.928Z,11.20
2019-03-28T16:14:43.709Z,10.80
2019-03-28T16:19:35.837Z,11.10
2019-03-28T16:24:28.183Z,13.00
2019-03-28T16:29:20.750Z,8.90
2019-03-28T16:34:13.194Z,7.70
2019-03-28T16:39:05.494Z,13.00
2019-03-28T16:43:57.818Z,14.10
2019-03-28T16:48:51.035Z,9.70
2019-03-28T16:53:43.529Z,9.10
2019-03-28T16:58:35.884Z,13.10
2019-03-28T17:03:30.121Z,10.40
2019-03-28T17:08:22.120Z,11.20
2019-03-28T17:13:14.234Z,14.30
2019-03-28T17:18:06.603Z,12.00
2019-03-28T17:22:59.148Z,14.10
2019-03-28T17:27:52.308Z,15.70
2019-03-28T17:32:44.512Z,15.80
2019-03-28T17:37:36.700Z,13.90
2019-03-28T17:42:30.907Z,15.30
2019-03-28T17:47:22.804Z,14.50
2019-03-28T17:52:14.900Z,28.50
2019-03-28T17:57:07.216Z,22.80
2019-03-28T18:01:59.609Z,21.30
2019-03-28T18:06:51.960Z,22.10
2019-03-28T18:11:44.690Z,20.90
2019-03-28T18:16:37.468Z,18.00
2019-03-28T18:21:29.647Z,19.10
2019-03-28T18:26:21.915Z,20.20
2019-03-28T18:31:14.216Z,18.90
2019-03-28T18:36:06.566Z,23.60
2019-03-28T18:40:58.753Z,26.70
2019-03-28T18:45:51.100Z,18.50
2019-03-28T18:50:43.488Z,17.00
2019-03-28T18:55:37.500Z,17.80
2019-03-28T19:00:29.241Z,17.30
2019-03-28T19:05:22.786Z,15.00
2019-03-28T19:10:14.610Z,23.70
2019-03-28T19:15:06.778Z,24.40
2019-03-28T19:19:59.602Z,17.70
2019-03-28T19:24:52.029Z,20.50
2019-03-28T19:29:44.057Z,23.00
2019-03-28T19:34:36.280Z,22.50
2019-03-28T19:39:28.305Z,25.30
2019-03-28T19:44:20.354Z,25.80
2019-03-28T19:49:12.704Z,28.70
2019-03-28T19:54:04.830Z,28.60
2019-03-28T19:58:59.339Z,35.80
2019-03-28T20:03:52.369Z,27.10
2019-03-28T20:08:45.479Z,34.40
2019-03-28T20:13:37.788Z,32.10
2019-03-28T20:18:29.936Z,36.60
2019-03-28T20:23:22.773Z,32.40
2019-03-28T20:28:14.900Z,34.00
2019-03-28T20:33:07.603Z,39.40
2019-03-28T20:37:59.902Z,35.10
2019-03-28T20:42:52.049Z,31.60
2019-03-28T20:47:44.238Z,29.00
2019-03-28T20:52:36.435Z,34.50
2019-03-28T20:57:28.629Z,32.50
2019-03-28T21:02:20.789Z,32.40
2019-03-28T21:07:13.826Z,34.90
2019-03-28T21:12:05.841Z,33.90
2019-03-28T21:16:58.339Z,31.10
2019-03-28T21:21:51.243Z,32.80
2019-03-28T21:26:43.474Z,38.60
2019-03-28T21:31:48.784Z,40.50
2019-03-28T21:36:42.082Z,39.20
2019-03-28T21:41:33.423Z,33.60
2019-03-28T21:46:27.345Z,43.80
2019-03-28T21:51:19.469Z,40.20
2019-03-28T21:56:14.071Z,40.50
2019-03-28T22:01:05.316Z,47.10
2019-03-28T22:05:58.094Z,37.70
2019-03-28T22:10:49.981Z,43.00
2019-03-28T22:15:43.984Z,39.30
2019-03-28T22:20:35.268Z,38.70
2019-03-28T22:25:29.221Z,40.60
2019-03-28T22:30:20.619Z,39.10
2019-03-28T22:35:12.605Z,40.10
2019-03-28T22:40:04.999Z,46.50
2019-03-28T22:44:56.593Z,40.20
2019-03-28T22:49:48.600Z,37.60
2019-03-28T22:54:40.835Z,40.70
2019-03-28T22:59:32.908Z,36.70
2019-03-28T23:04:22.899Z,45.70
2019-03-28T23:09:13.101Z,38.40
2019-03-28T23:14:05.422Z,39.90
2019-03-28T23:18:57.208Z,37.70
2019-03-28T23:23:48.549Z,50.70
2019-03-28T23:28:38.706Z,38.00
2019-03-28T23:33:29.056Z,43.80
2019-03-28T23:38:21.669Z,35.60
2019-03-28T23:43:15.458Z,39.40
2019-03-28T23:48:08.726Z,38.30
2019-03-28T23:53:01.852Z,42.40
2019-03-28T23:57:55.175Z,41.60
